sensor_id;sensor_type;location;lat;lon;timestamp;P1;durP1;ratioP1;P2;durP2;ratioP2
28607;SDS011;15802;45.654;13.804;2023-01-08T00:00:21;77.68;;;37.00;;
28607;SDS011;15802;45.654;13.804;2023-01-08T00:02:47;73.22;;;37.65;;
28607;SDS011;15802;45.654;13.804;2023-01-08T00:05:16;76.25;;;38.13;;
28607;SDS011;15802;45.654;13.804;2023-01-08T00:07:49;74.38;;;36.22;;
28607;SDS011;15802;45.654;13.804;2023-01-08T00:10:37;71.82;;;36.72;;
28607;SDS011;15802;45.654;13.804;2023-01-08T00:13:03;74.15;;;37.25;;
28607;SDS011;15802;45.654;13.804;2023-01-08T00:15:30;67.30;;;33.35;;
28607;SDS011;15802;45.654;13.804;2023-01-08T00:17:57;68.50;;;33.88;;
28607;SDS011;15802;45.654;13.804;2023-01-08T00:20:23;72.72;;;37.35;;
28607;SDS011;15802;45.654;13.804;2023-01-08T00:22:50;79.30;;;39.05;;
28607;SDS011;15802;45.654;13.804;2023-01-08T00:25:17;75.85;;;39.00;;
28607;SDS011;15802;45.654;13.804;2023-01-08T00:27:46;82.40;;;41.83;;
28607;SDS011;15802;45.654;13.804;2023-01-08T00:30:12;82.25;;;41.78;;
28607;SDS011;15802;45.654;13.804;2023-01-08T00:32:38;82.82;;;41.78;;
28607;SDS011;15802;45.654;13.804;2023-01-08T00:35:04;85.22;;;41.70;;
28607;SDS011;15802;45.654;13.804;2023-01-08T00:37:30;82.85;;;41.72;;
28607;SDS011;15802;45.654;13.804;2023-01-08T00:39:56;81.03;;;41.45;;
28607;SDS011;15802;45.654;13.804;2023-01-08T00:42:22;86.85;;;43.47;;
28607;SDS011;15802;45.654;13.804;2023-01-08T00:44:48;85.13;;;42.60;;
28607;SDS011;15802;45.654;13.804;2023-01-08T00:49:42;86.75;;;42.95;;
28607;SDS011;15802;45.654;13.804;2023-01-08T00:52:08;80.35;;;41.90;;
28607;SDS011;15802;45.654;13.804;2023-01-08T00:54:34;83.35;;;42.47;;
28607;SDS011;15802;45.654;13.804;2023-01-08T00:57:00;83.85;;;42.63;;
28607;SDS011;15802;45.654;13.804;2023-01-08T00:59:26;82.03;;;41.65;;
28607;SDS011;15802;45.654;13.804;2023-01-08T01:01:52;86.45;;;44.53;;
28607;SDS011;15802;45.654;13.804;2023-01-08T01:04:18;80.07;;;41.63;;
28607;SDS011;15802;45.654;13.804;2023-01-08T01:06:45;87.07;;;42.40;;
28607;SDS011;15802;45.654;13.804;2023-01-08T01:09:10;85.00;;;42.65;;
28607;SDS011;15802;45.654;13.804;2023-01-08T01:11:36;79.18;;;42.45;;
28607;SDS011;15802;45.654;13.804;2023-01-08T01:14:02;82.47;;;41.20;;
28607;SDS011;15802;45.654;13.804;2023-01-08T01:16:28;83.70;;;41.50;;
28607;SDS011;15802;45.654;13.804;2023-01-08T01:18:54;84.40;;;42.28;;
28607;SDS011;15802;45.654;13.804;2023-01-08T01:21:23;85.38;;;41.88;;
28607;SDS011;15802;45.654;13.804;2023-01-08T01:23:54;82.75;;;42.97;;
28607;SDS011;15802;45.654;13.804;2023-01-08T01:26:22;86.45;;;43.25;;
28607;SDS011;15802;45.654;13.804;2023-01-08T01:28:49;83.18;;;42.55;;
28607;SDS011;15802;45.654;13.804;2023-01-08T01:33:50;80.07;;;40.38;;
28607;SDS011;15802;45.654;13.804;2023-01-08T01:36:22;83.75;;;40.53;;
28607;SDS011;15802;45.654;13.804;2023-01-08T01:38:49;76.63;;;39.88;;
28607;SDS011;15802;45.654;13.804;2023-01-08T01:41:18;79.90;;;39.75;;
28607;SDS011;15802;45.654;13.804;2023-01-08T01:43:50;76.82;;;39.38;;
28607;SDS011;15802;45.654;13.804;2023-01-08T01:49:03;79.07;;;38.47;;
28607;SDS011;15802;45.654;13.804;2023-01-08T01:51:34;81.35;;;40.72;;
28607;SDS011;15802;45.654;13.804;2023-01-08T01:54:03;77.35;;;40.28;;
28607;SDS011;15802;45.654;13.804;2023-01-08T01:56:34;77.63;;;38.08;;
28607;SDS011;15802;45.654;13.804;2023-01-08T01:59:01;85.35;;;40.80;;
28607;SDS011;15802;45.654;13.804;2023-01-08T02:01:28;76.72;;;39.17;;
28607;SDS011;15802;45.654;13.804;2023-01-08T02:03:56;75.93;;;38.92;;
28607;SDS011;15802;45.654;13.804;2023-01-08T02:09:34;79.40;;;40.25;;
28607;SDS011;15802;45.654;13.804;2023-01-08T02:12:21;81.75;;;39.80;;
28607;SDS011;15802;45.654;13.804;2023-01-08T02:15:01;77.40;;;38.67;;
28607;SDS011;15802;45.654;13.804;2023-01-08T02:17:49;78.35;;;40.15;;
28607;SDS011;15802;45.654;13.804;2023-01-08T02:20:24;76.72;;;39.65;;
28607;SDS011;15802;45.654;13.804;2023-01-08T02:29:09;75.07;;;38.15;;
28607;SDS011;15802;45.654;13.804;2023-01-08T02:31:59;81.82;;;39.03;;
28607;SDS011;15802;45.654;13.804;2023-01-08T02:34:26;87.15;;;42.17;;
28607;SDS011;15802;45.654;13.804;2023-01-08T02:37:01;84.00;;;41.22;;
28607;SDS011;15802;45.654;13.804;2023-01-08T02:39:45;86.43;;;42.10;;
28607;SDS011;15802;45.654;13.804;2023-01-08T02:42:30;78.05;;;40.00;;
28607;SDS011;15802;45.654;13.804;2023-01-08T02:48:32;78.90;;;39.50;;
28607;SDS011;15802;45.654;13.804;2023-01-08T02:51:20;74.77;;;38.03;;
28607;SDS011;15802;45.654;13.804;2023-01-08T02:53:57;79.70;;;38.78;;
28607;SDS011;15802;45.654;13.804;2023-01-08T02:56:35;82.53;;;39.92;;
28607;SDS011;15802;45.654;13.804;2023-01-08T02:59:08;81.30;;;39.13;;
28607;SDS011;15802;45.654;13.804;2023-01-08T03:01:46;78.90;;;40.03;;
28607;SDS011;15802;45.654;13.804;2023-01-08T03:04:30;76.35;;;38.78;;
28607;SDS011;15802;45.654;13.804;2023-01-08T03:07:01;78.38;;;39.63;;
28607;SDS011;15802;45.654;13.804;2023-01-08T03:09:37;80.40;;;39.60;;
28607;SDS011;15802;45.654;13.804;2023-01-08T03:12:17;81.95;;;41.05;;
28607;SDS011;15802;45.654;13.804;2023-01-08T03:15:08;82.30;;;40.40;;
28607;SDS011;15802;45.654;13.804;2023-01-08T03:17:41;77.32;;;39.80;;
28607;SDS011;15802;45.654;13.804;2023-01-08T03:20:12;75.63;;;39.92;;
28607;SDS011;15802;45.654;13.804;2023-01-08T03:22:41;74.47;;;38.40;;
28607;SDS011;15802;45.654;13.804;2023-01-08T03:25:21;80.35;;;39.40;;
28607;SDS011;15802;45.654;13.804;2023-01-08T03:27:50;77.70;;;39.33;;
28607;SDS011;15802;45.654;13.804;2023-01-08T03:30:20;76.77;;;38.07;;
28607;SDS011;15802;45.654;13.804;2023-01-08T03:32:47;75.28;;;37.28;;
28607;SDS011;15802;45.654;13.804;2023-01-08T03:35:16;76.72;;;35.45;;
28607;SDS011;15802;45.654;13.804;2023-01-08T03:37:48;75.97;;;37.08;;
28607;SDS011;15802;45.654;13.804;2023-01-08T03:40:30;76.22;;;38.45;;
28607;SDS011;15802;45.654;13.804;2023-01-08T03:43:01;75.38;;;37.63;;
28607;SDS011;15802;45.654;13.804;2023-01-08T03:45:30;74.15;;;37.55;;
28607;SDS011;15802;45.654;13.804;2023-01-08T03:48:11;77.30;;;37.85;;
28607;SDS011;15802;45.654;13.804;2023-01-08T03:50:40;71.18;;;36.00;;
28607;SDS011;15802;45.654;13.804;2023-01-08T03:53:07;75.57;;;37.72;;
28607;SDS011;15802;45.654;13.804;2023-01-08T03:55:36;73.65;;;36.58;;
28607;SDS011;15802;45.654;13.804;2023-01-08T03:58:02;72.50;;;35.78;;
28607;SDS011;15802;45.654;13.804;2023-01-08T04:00:31;75.05;;;35.67;;
28607;SDS011;15802;45.654;13.804;2023-01-08T04:02:57;72.00;;;36.22;;
28607;SDS011;15802;45.654;13.804;2023-01-08T04:05:26;76.05;;;35.25;;
28607;SDS011;15802;45.654;13.804;2023-01-08T04:07:55;70.05;;;34.30;;
28607;SDS011;15802;45.654;13.804;2023-01-08T04:10:24;66.47;;;33.67;;
28607;SDS011;15802;45.654;13.804;2023-01-08T04:12:51;79.22;;;35.65;;
28607;SDS011;15802;45.654;13.804;2023-01-08T04:17:46;74.72;;;35.08;;
28607;SDS011;15802;45.654;13.804;2023-01-08T04:20:15;73.85;;;34.92;;
28607;SDS011;15802;45.654;13.804;2023-01-08T04:22:48;73.50;;;35.38;;
28607;SDS011;15802;45.654;13.804;2023-01-08T04:25:23;71.15;;;34.63;;
28607;SDS011;15802;45.654;13.804;2023-01-08T04:28:01;75.35;;;35.45;;
28607;SDS011;15802;45.654;13.804;2023-01-08T04:30:27;68.13;;;33.72;;
28607;SDS011;15802;45.654;13.804;2023-01-08T04:32:56;74.10;;;35.47;;
28607;SDS011;15802;45.654;13.804;2023-01-08T04:35:43;71.80;;;34.40;;
28607;SDS011;15802;45.654;13.804;2023-01-08T04:38:14;79.50;;;36.00;;
28607;SDS011;15802;45.654;13.804;2023-01-08T04:40:40;71.70;;;33.83;;
28607;SDS011;15802;45.654;13.804;2023-01-08T04:43:06;69.00;;;34.35;;
28607;SDS011;15802;45.654;13.804;2023-01-08T04:45:32;70.28;;;34.03;;
28607;SDS011;15802;45.654;13.804;2023-01-08T04:48:02;84.47;;;34.63;;
28607;SDS011;15802;45.654;13.804;2023-01-08T04:50:28;79.20;;;36.00;;
28607;SDS011;15802;45.654;13.804;2023-01-08T04:53:06;70.90;;;31.88;;
28607;SDS011;15802;45.654;13.804;2023-01-08T04:55:40;81.95;;;33.33;;
28607;SDS011;15802;45.654;13.804;2023-01-08T04:58:15;75.40;;;33.20;;
28607;SDS011;15802;45.654;13.804;2023-01-08T05:01:12;76.68;;;31.10;;
28607;SDS011;15802;45.654;13.804;2023-01-08T05:03:43;72.93;;;31.85;;
28607;SDS011;15802;45.654;13.804;2023-01-08T05:06:09;75.10;;;31.13;;
28607;SDS011;15802;45.654;13.804;2023-01-08T05:08:39;77.72;;;31.90;;
28607;SDS011;15802;45.654;13.804;2023-01-08T05:11:05;73.32;;;30.20;;
28607;SDS011;15802;45.654;13.804;2023-01-08T05:13:31;71.43;;;29.50;;
28607;SDS011;15802;45.654;13.804;2023-01-08T05:15:58;80.13;;;32.03;;
28607;SDS011;15802;45.654;13.804;2023-01-08T05:18:25;77.13;;;30.42;;
28607;SDS011;15802;45.654;13.804;2023-01-08T05:21:00;74.20;;;30.95;;
28607;SDS011;15802;45.654;13.804;2023-01-08T05:23:35;73.10;;;29.98;;
28607;SDS011;15802;45.654;13.804;2023-01-08T05:26:02;70.63;;;30.92;;
28607;SDS011;15802;45.654;13.804;2023-01-08T05:28:30;76.72;;;30.80;;
28607;SDS011;15802;45.654;13.804;2023-01-08T05:31:08;73.97;;;30.30;;
28607;SDS011;15802;45.654;13.804;2023-01-08T05:33:36;65.93;;;29.50;;
28607;SDS011;15802;45.654;13.804;2023-01-08T05:36:06;64.60;;;29.52;;
28607;SDS011;15802;45.654;13.804;2023-01-08T05:38:33;74.10;;;30.23;;
28607;SDS011;15802;45.654;13.804;2023-01-08T05:41:02;65.82;;;28.85;;
28607;SDS011;15802;45.654;13.804;2023-01-08T05:43:29;71.25;;;30.23;;
28607;SDS011;15802;45.654;13.804;2023-01-08T05:45:57;73.55;;;30.98;;
28607;SDS011;15802;45.654;13.804;2023-01-08T05:48:24;71.32;;;30.30;;
28607;SDS011;15802;45.654;13.804;2023-01-08T05:50:51;69.63;;;30.42;;
28607;SDS011;15802;45.654;13.804;2023-01-08T05:53:26;67.57;;;29.55;;
28607;SDS011;15802;45.654;13.804;2023-01-08T05:55:58;72.95;;;30.15;;
28607;SDS011;15802;45.654;13.804;2023-01-08T05:58:25;73.53;;;30.90;;
28607;SDS011;15802;45.654;13.804;2023-01-08T06:00:52;69.00;;;30.42;;
28607;SDS011;15802;45.654;13.804;2023-01-08T06:03:20;72.93;;;30.23;;
28607;SDS011;15802;45.654;13.804;2023-01-08T06:05:49;70.43;;;29.85;;
28607;SDS011;15802;45.654;13.804;2023-01-08T06:08:23;72.85;;;29.95;;
28607;SDS011;15802;45.654;13.804;2023-01-08T06:10:49;71.80;;;30.85;;
28607;SDS011;15802;45.654;13.804;2023-01-08T06:13:17;74.63;;;29.70;;
28607;SDS011;15802;45.654;13.804;2023-01-08T06:15:43;69.97;;;28.95;;
28607;SDS011;15802;45.654;13.804;2023-01-08T06:18:09;74.13;;;31.10;;
28607;SDS011;15802;45.654;13.804;2023-01-08T06:20:38;70.90;;;29.08;;
28607;SDS011;15802;45.654;13.804;2023-01-08T06:23:04;73.40;;;29.75;;
28607;SDS011;15802;45.654;13.804;2023-01-08T06:25:40;66.30;;;28.92;;
28607;SDS011;15802;45.654;13.804;2023-01-08T06:28:08;72.47;;;29.95;;
28607;SDS011;15802;45.654;13.804;2023-01-08T06:30:34;76.28;;;31.65;;
28607;SDS011;15802;45.654;13.804;2023-01-08T06:33:00;77.13;;;32.17;;
28607;SDS011;15802;45.654;13.804;2023-01-08T06:35:26;72.80;;;32.40;;
28607;SDS011;15802;45.654;13.804;2023-01-08T06:37:53;77.70;;;31.63;;
28607;SDS011;15802;45.654;13.804;2023-01-08T06:40:20;76.43;;;31.15;;
28607;SDS011;15802;45.654;13.804;2023-01-08T06:42:49;76.78;;;31.63;;
28607;SDS011;15802;45.654;13.804;2023-01-08T06:45:15;74.47;;;30.70;;
28607;SDS011;15802;45.654;13.804;2023-01-08T06:47:41;80.15;;;31.67;;
28607;SDS011;15802;45.654;13.804;2023-01-08T06:50:07;80.75;;;34.10;;
28607;SDS011;15802;45.654;13.804;2023-01-08T06:52:38;79.35;;;31.45;;
28607;SDS011;15802;45.654;13.804;2023-01-08T06:55:06;76.53;;;31.80;;
28607;SDS011;15802;45.654;13.804;2023-01-08T06:57:33;81.38;;;33.75;;
28607;SDS011;15802;45.654;13.804;2023-01-08T06:59:59;84.13;;;31.70;;
28607;SDS011;15802;45.654;13.804;2023-01-08T07:02:25;64.97;;;29.52;;
28607;SDS011;15802;45.654;13.804;2023-01-08T07:04:51;72.20;;;30.15;;
28607;SDS011;15802;45.654;13.804;2023-01-08T07:07:17;71.35;;;30.48;;
28607;SDS011;15802;45.654;13.804;2023-01-08T07:09:45;74.13;;;31.70;;
28607;SDS011;15802;45.654;13.804;2023-01-08T07:12:14;74.80;;;30.58;;
28607;SDS011;15802;45.654;13.804;2023-01-08T07:14:40;74.50;;;31.17;;
28607;SDS011;15802;45.654;13.804;2023-01-08T07:17:06;74.43;;;32.47;;
28607;SDS011;15802;45.654;13.804;2023-01-08T07:19:32;79.72;;;31.80;;
28607;SDS011;15802;45.654;13.804;2023-01-08T07:21:58;73.18;;;31.02;;
28607;SDS011;15802;45.654;13.804;2023-01-08T07:24:24;75.40;;;31.80;;
28607;SDS011;15802;45.654;13.804;2023-01-08T07:26:50;79.13;;;33.67;;
28607;SDS011;15802;45.654;13.804;2023-01-08T07:29:16;82.65;;;33.90;;
28607;SDS011;15802;45.654;13.804;2023-01-08T07:31:52;90.47;;;38.47;;
28607;SDS011;15802;45.654;13.804;2023-01-08T07:34:18;96.57;;;38.30;;
28607;SDS011;15802;45.654;13.804;2023-01-08T07:36:56;96.90;;;39.60;;
28607;SDS011;15802;45.654;13.804;2023-01-08T07:39:51;87.88;;;37.83;;
28607;SDS011;15802;45.654;13.804;2023-01-08T07:42:17;93.00;;;39.55;;
28607;SDS011;15802;45.654;13.804;2023-01-08T07:44:44;89.38;;;39.13;;
28607;SDS011;15802;45.654;13.804;2023-01-08T07:47:10;96.22;;;39.88;;
28607;SDS011;15802;45.654;13.804;2023-01-08T07:49:35;94.07;;;39.42;;
28607;SDS011;15802;45.654;13.804;2023-01-08T07:52:01;91.20;;;39.10;;
28607;SDS011;15802;45.654;13.804;2023-01-08T07:54:27;101.07;;;38.70;;
28607;SDS011;15802;45.654;13.804;2023-01-08T07:57:13;94.80;;;38.80;;
28607;SDS011;15802;45.654;13.804;2023-01-08T07:59:42;92.20;;;39.08;;
28607;SDS011;15802;45.654;13.804;2023-01-08T08:02:10;94.70;;;39.92;;
28607;SDS011;15802;45.654;13.804;2023-01-08T08:04:36;93.65;;;39.00;;
28607;SDS011;15802;45.654;13.804;2023-01-08T08:07:02;92.72;;;39.78;;
28607;SDS011;15802;45.654;13.804;2023-01-08T08:09:28;95.20;;;38.47;;
28607;SDS011;15802;45.654;13.804;2023-01-08T08:11:54;86.57;;;38.42;;
28607;SDS011;15802;45.654;13.804;2023-01-08T08:14:22;87.25;;;37.92;;
28607;SDS011;15802;45.654;13.804;2023-01-08T08:16:51;95.38;;;38.65;;
28607;SDS011;15802;45.654;13.804;2023-01-08T08:19:20;88.50;;;39.17;;
28607;SDS011;15802;45.654;13.804;2023-01-08T08:21:46;88.97;;;37.95;;
28607;SDS011;15802;45.654;13.804;2023-01-08T08:24:15;88.53;;;38.50;;
28607;SDS011;15802;45.654;13.804;2023-01-08T08:26:41;95.95;;;38.78;;
28607;SDS011;15802;45.654;13.804;2023-01-08T08:29:07;90.40;;;39.15;;
28607;SDS011;15802;45.654;13.804;2023-01-08T08:31:33;97.68;;;38.97;;
28607;SDS011;15802;45.654;13.804;2023-01-08T08:33:59;96.18;;;40.95;;
28607;SDS011;15802;45.654;13.804;2023-01-08T08:36:27;90.22;;;37.45;;
28607;SDS011;15802;45.654;13.804;2023-01-08T08:38:54;86.70;;;37.40;;
28607;SDS011;15802;45.654;13.804;2023-01-08T08:41:21;93.78;;;41.25;;
28607;SDS011;15802;45.654;13.804;2023-01-08T08:43:51;91.32;;;38.92;;
28607;SDS011;15802;45.654;13.804;2023-01-08T08:46:20;97.97;;;39.78;;
28607;SDS011;15802;45.654;13.804;2023-01-08T08:48:46;97.97;;;40.05;;
28607;SDS011;15802;45.654;13.804;2023-01-08T08:51:15;100.53;;;39.53;;
28607;SDS011;15802;45.654;13.804;2023-01-08T08:53:42;100.70;;;39.67;;
28607;SDS011;15802;45.654;13.804;2023-01-08T08:56:08;98.50;;;40.10;;
28607;SDS011;15802;45.654;13.804;2023-01-08T08:58:34;103.72;;;41.17;;
28607;SDS011;15802;45.654;13.804;2023-01-08T09:01:01;102.45;;;39.83;;
28607;SDS011;15802;45.654;13.804;2023-01-08T09:03:28;95.05;;;40.30;;
28607;SDS011;15802;45.654;13.804;2023-01-08T09:05:54;101.25;;;42.40;;
28607;SDS011;15802;45.654;13.804;2023-01-08T09:08:23;103.85;;;41.70;;
28607;SDS011;15802;45.654;13.804;2023-01-08T09:10:54;106.68;;;41.08;;
28607;SDS011;15802;45.654;13.804;2023-01-08T09:13:20;103.60;;;41.67;;
28607;SDS011;15802;45.654;13.804;2023-01-08T09:15:46;100.85;;;41.97;;
28607;SDS011;15802;45.654;13.804;2023-01-08T09:18:12;113.47;;;43.03;;
28607;SDS011;15802;45.654;13.804;2023-01-08T09:20:38;101.75;;;43.97;;
28607;SDS011;15802;45.654;13.804;2023-01-08T09:23:04;107.78;;;44.70;;
28607;SDS011;15802;45.654;13.804;2023-01-08T09:25:31;103.65;;;43.97;;
28607;SDS011;15802;45.654;13.804;2023-01-08T09:27:57;114.32;;;45.88;;
28607;SDS011;15802;45.654;13.804;2023-01-08T09:30:24;106.00;;;43.95;;
28607;SDS011;15802;45.654;13.804;2023-01-08T09:35:30;110.35;;;44.08;;
28607;SDS011;15802;45.654;13.804;2023-01-08T09:37:57;105.90;;;44.00;;
28607;SDS011;15802;45.654;13.804;2023-01-08T09:40:30;105.15;;;44.80;;
28607;SDS011;15802;45.654;13.804;2023-01-08T09:43:00;102.97;;;43.42;;
28607;SDS011;15802;45.654;13.804;2023-01-08T09:45:29;101.43;;;43.40;;
28607;SDS011;15802;45.654;13.804;2023-01-08T09:47:56;102.72;;;44.00;;
28607;SDS011;15802;45.654;13.804;2023-01-08T09:50:25;103.20;;;43.47;;
28607;SDS011;15802;45.654;13.804;2023-01-08T09:52:52;103.20;;;41.38;;
28607;SDS011;15802;45.654;13.804;2023-01-08T09:55:19;100.43;;;42.88;;
28607;SDS011;15802;45.654;13.804;2023-01-08T09:57:45;95.53;;;42.22;;
28607;SDS011;15802;45.654;13.804;2023-01-08T10:00:13;97.75;;;43.22;;
28607;SDS011;15802;45.654;13.804;2023-01-08T10:02:41;90.00;;;39.70;;
28607;SDS011;15802;45.654;13.804;2023-01-08T10:05:13;91.82;;;39.13;;
28607;SDS011;15802;45.654;13.804;2023-01-08T10:07:40;85.70;;;37.30;;
28607;SDS011;15802;45.654;13.804;2023-01-08T10:10:27;88.45;;;35.92;;
28607;SDS011;15802;45.654;13.804;2023-01-08T10:12:54;86.00;;;37.05;;
28607;SDS011;15802;45.654;13.804;2023-01-08T10:15:20;89.65;;;37.92;;
28607;SDS011;15802;45.654;13.804;2023-01-08T10:17:52;82.57;;;37.17;;
28607;SDS011;15802;45.654;13.804;2023-01-08T10:20:28;85.90;;;36.95;;
28607;SDS011;15802;45.654;13.804;2023-01-08T10:22:55;90.93;;;37.65;;
28607;SDS011;15802;45.654;13.804;2023-01-08T10:25:32;82.82;;;35.88;;
28607;SDS011;15802;45.654;13.804;2023-01-08T10:28:00;86.78;;;37.78;;
28607;SDS011;15802;45.654;13.804;2023-01-08T10:30:32;91.35;;;37.15;;
28607;SDS011;15802;45.654;13.804;2023-01-08T10:33:08;66.50;;;31.88;;
28607;SDS011;15802;45.654;13.804;2023-01-08T10:35:39;68.25;;;32.70;;
28607;SDS011;15802;45.654;13.804;2023-01-08T10:38:20;70.25;;;31.95;;
28607;SDS011;15802;45.654;13.804;2023-01-08T10:40:50;67.97;;;30.95;;
28607;SDS011;15802;45.654;13.804;2023-01-08T10:43:19;66.45;;;30.23;;
28607;SDS011;15802;45.654;13.804;2023-01-08T10:46:05;67.57;;;30.45;;
28607;SDS011;15802;45.654;13.804;2023-01-08T10:48:38;64.43;;;29.70;;
28607;SDS011;15802;45.654;13.804;2023-01-08T10:51:13;73.78;;;32.30;;
28607;SDS011;15802;45.654;13.804;2023-01-08T10:53:43;78.65;;;33.88;;
28607;SDS011;15802;45.654;13.804;2023-01-08T10:56:26;76.20;;;34.40;;
28607;SDS011;15802;45.654;13.804;2023-01-08T10:58:54;73.00;;;33.88;;
28607;SDS011;15802;45.654;13.804;2023-01-08T11:01:23;75.50;;;34.95;;
28607;SDS011;15802;45.654;13.804;2023-01-08T11:03:55;84.60;;;36.30;;
28607;SDS011;15802;45.654;13.804;2023-01-08T11:06:24;79.75;;;36.55;;
28607;SDS011;15802;45.654;13.804;2023-01-08T11:08:59;77.47;;;36.60;;
28607;SDS011;15802;45.654;13.804;2023-01-08T11:11:32;79.00;;;37.22;;
28607;SDS011;15802;45.654;13.804;2023-01-08T11:14:01;82.43;;;36.22;;
28607;SDS011;15802;45.654;13.804;2023-01-08T11:16:32;80.20;;;35.97;;
28607;SDS011;15802;45.654;13.804;2023-01-08T11:19:14;79.25;;;34.97;;
28607;SDS011;15802;45.654;13.804;2023-01-08T11:22:00;79.30;;;35.83;;
28607;SDS011;15802;45.654;13.804;2023-01-08T11:24:32;86.85;;;37.90;;
28607;SDS011;15802;45.654;13.804;2023-01-08T11:27:02;83.72;;;35.63;;
28607;SDS011;15802;45.654;13.804;2023-01-08T11:30:13;85.30;;;36.78;;
28607;SDS011;15802;45.654;13.804;2023-01-08T11:32:50;78.93;;;35.88;;
28607;SDS011;15802;45.654;13.804;2023-01-08T11:35:47;82.97;;;37.70;;
28607;SDS011;15802;45.654;13.804;2023-01-08T11:38:26;84.25;;;36.17;;
28607;SDS011;15802;45.654;13.804;2023-01-08T11:41:14;79.53;;;36.67;;
28607;SDS011;15802;45.654;13.804;2023-01-08T11:43:59;78.72;;;36.63;;
28607;SDS011;15802;45.654;13.804;2023-01-08T11:46:47;80.20;;;35.58;;
28607;SDS011;15802;45.654;13.804;2023-01-08T11:49:34;77.65;;;33.95;;
28607;SDS011;15802;45.654;13.804;2023-01-08T11:52:26;73.72;;;35.28;;
28607;SDS011;15802;45.654;13.804;2023-01-08T11:55:20;72.25;;;33.35;;
28607;SDS011;15802;45.654;13.804;2023-01-08T11:58:06;77.18;;;35.22;;
28607;SDS011;15802;45.654;13.804;2023-01-08T12:01:11;72.45;;;34.83;;
28607;SDS011;15802;45.654;13.804;2023-01-08T12:03:51;81.53;;;36.42;;
28607;SDS011;15802;45.654;13.804;2023-01-08T12:09:37;71.25;;;33.00;;
28607;SDS011;15802;45.654;13.804;2023-01-08T12:12:16;78.50;;;35.15;;
28607;SDS011;15802;45.654;13.804;2023-01-08T12:15:14;75.82;;;33.45;;
28607;SDS011;15802;45.654;13.804;2023-01-08T12:18:04;72.47;;;32.53;;
28607;SDS011;15802;45.654;13.804;2023-01-08T12:21:18;74.32;;;32.63;;
28607;SDS011;15802;45.654;13.804;2023-01-08T12:24:14;64.15;;;31.45;;
28607;SDS011;15802;45.654;13.804;2023-01-08T12:30:05;63.40;;;31.77;;
28607;SDS011;15802;45.654;13.804;2023-01-08T12:32:54;72.47;;;33.05;;
28607;SDS011;15802;45.654;13.804;2023-01-08T12:35:47;77.22;;;35.53;;
28607;SDS011;15802;45.654;13.804;2023-01-08T12:38:38;74.35;;;35.17;;
28607;SDS011;15802;45.654;13.804;2023-01-08T12:41:10;67.82;;;33.15;;
28607;SDS011;15802;45.654;13.804;2023-01-08T12:44:04;72.45;;;33.70;;
28607;SDS011;15802;45.654;13.804;2023-01-08T12:46:41;73.80;;;35.08;;
28607;SDS011;15802;45.654;13.804;2023-01-08T12:49:18;71.20;;;33.47;;
28607;SDS011;15802;45.654;13.804;2023-01-08T12:52:05;75.88;;;34.55;;
28607;SDS011;15802;45.654;13.804;2023-01-08T12:54:49;72.93;;;34.75;;
28607;SDS011;15802;45.654;13.804;2023-01-08T12:57:33;71.75;;;34.15;;
28607;SDS011;15802;45.654;13.804;2023-01-08T13:00:18;69.57;;;33.60;;
28607;SDS011;15802;45.654;13.804;2023-01-08T13:03:09;72.28;;;32.67;;
28607;SDS011;15802;45.654;13.804;2023-01-08T13:05:47;66.05;;;33.63;;
28607;SDS011;15802;45.654;13.804;2023-01-08T13:08:22;73.53;;;35.33;;
28607;SDS011;15802;45.654;13.804;2023-01-08T13:10:54;76.70;;;36.53;;
28607;SDS011;15802;45.654;13.804;2023-01-08T13:13:34;76.15;;;35.20;;
28607;SDS011;15802;45.654;13.804;2023-01-08T13:16:18;71.13;;;35.38;;
28607;SDS011;15802;45.654;13.804;2023-01-08T13:18:50;69.95;;;33.22;;
28607;SDS011;15802;45.654;13.804;2023-01-08T13:21:40;74.38;;;35.33;;
28607;SDS011;15802;45.654;13.804;2023-01-08T13:24:38;75.07;;;35.85;;
28607;SDS011;15802;45.654;13.804;2023-01-08T13:27:09;81.57;;;37.58;;
28607;SDS011;15802;45.654;13.804;2023-01-08T13:29:55;79.25;;;38.13;;
28607;SDS011;15802;45.654;13.804;2023-01-08T13:32:26;81.65;;;37.25;;
28607;SDS011;15802;45.654;13.804;2023-01-08T13:35:24;82.25;;;37.55;;
28607;SDS011;15802;45.654;13.804;2023-01-08T13:43:28;76.20;;;36.22;;
28607;SDS011;15802;45.654;13.804;2023-01-08T13:46:07;88.97;;;39.92;;
28607;SDS011;15802;45.654;13.804;2023-01-08T13:48:52;77.10;;;37.97;;
28607;SDS011;15802;45.654;13.804;2023-01-08T13:51:40;82.07;;;38.00;;
28607;SDS011;15802;45.654;13.804;2023-01-08T13:54:16;82.18;;;39.40;;
28607;SDS011;15802;45.654;13.804;2023-01-08T13:56:46;80.88;;;39.80;;
28607;SDS011;15802;45.654;13.804;2023-01-08T13:59:35;80.38;;;40.63;;
28607;SDS011;15802;45.654;13.804;2023-01-08T14:05:13;86.70;;;39.72;;
28607;SDS011;15802;45.654;13.804;2023-01-08T14:07:57;84.22;;;38.45;;
28607;SDS011;15802;45.654;13.804;2023-01-08T14:10:34;87.45;;;38.80;;
28607;SDS011;15802;45.654;13.804;2023-01-08T14:13:08;80.18;;;38.47;;
28607;SDS011;15802;45.654;13.804;2023-01-08T14:15:40;78.78;;;38.25;;
28607;SDS011;15802;45.654;13.804;2023-01-08T14:18:09;79.50;;;38.08;;
28607;SDS011;15802;45.654;13.804;2023-01-08T14:20:38;76.28;;;36.53;;
28607;SDS011;15802;45.654;13.804;2023-01-08T14:23:17;78.30;;;37.55;;
28607;SDS011;15802;45.654;13.804;2023-01-08T14:26:03;77.97;;;37.58;;
28607;SDS011;15802;45.654;13.804;2023-01-08T14:28:34;78.53;;;37.33;;
28607;SDS011;15802;45.654;13.804;2023-01-08T14:31:16;80.05;;;38.30;;
28607;SDS011;15802;45.654;13.804;2023-01-08T14:33:46;78.53;;;36.47;;
28607;SDS011;15802;45.654;13.804;2023-01-08T14:36:21;79.07;;;37.17;;
28607;SDS011;15802;45.654;13.804;2023-01-08T14:38:56;79.25;;;37.47;;
28607;SDS011;15802;45.654;13.804;2023-01-08T14:41:34;74.63;;;35.90;;
28607;SDS011;15802;45.654;13.804;2023-01-08T14:44:25;77.63;;;37.35;;
28607;SDS011;15802;45.654;13.804;2023-01-08T14:47:00;71.07;;;35.67;;
28607;SDS011;15802;45.654;13.804;2023-01-08T14:49:52;82.97;;;38.60;;
28607;SDS011;15802;45.654;13.804;2023-01-08T14:52:18;71.45;;;36.78;;
28607;SDS011;15802;45.654;13.804;2023-01-08T14:55:04;70.95;;;35.75;;
28607;SDS011;15802;45.654;13.804;2023-01-08T14:57:41;65.45;;;33.75;;
28607;SDS011;15802;45.654;13.804;2023-01-08T15:00:17;63.38;;;32.30;;
28607;SDS011;15802;45.654;13.804;2023-01-08T15:02:51;69.35;;;32.88;;
28607;SDS011;15802;45.654;13.804;2023-01-08T15:05:25;59.90;;;30.75;;
28607;SDS011;15802;45.654;13.804;2023-01-08T15:13:58;56.00;;;28.13;;
28607;SDS011;15802;45.654;13.804;2023-01-08T15:16:28;54.22;;;28.30;;
28607;SDS011;15802;45.654;13.804;2023-01-08T15:19:04;51.88;;;27.05;;
28607;SDS011;15802;45.654;13.804;2023-01-08T15:21:36;54.92;;;28.48;;
28607;SDS011;15802;45.654;13.804;2023-01-08T15:24:20;59.95;;;28.75;;
28607;SDS011;15802;45.654;13.804;2023-01-08T15:26:53;57.55;;;28.92;;